sensor_id;sensor_type;location;lat;lon;timestamp;pressure;altitude;pressure_sealevel;temperature;humidity
84055;BME280;74141;51.504;7.122;2023-11-21T00:01:37;100577.25;;;6.30;100.00
84055;BME280;74141;51.504;7.122;2023-11-21T00:04:03;100579.84;;;6.30;100.00
84055;BME280;74141;51.504;7.122;2023-11-21T00:06:28;100581.72;;;6.24;100.00
84055;BME280;74141;51.504;7.122;2023-11-21T00:08:55;100587.78;;;6.27;100.00
84055;BME280;74141;51.504;7.122;2023-11-21T00:11:20;100585.16;;;6.27;100.00
84055;BME280;74141;51.504;7.122;2023-11-21T00:13:46;100592.09;;;6.28;100.00
84055;BME280;74141;51.504;7.122;2023-11-21T00:16:11;100590.28;;;6.31;100.00
84055;BME280;74141;51.504;7.122;2023-11-21T00:18:37;100588.38;;;6.38;100.00
84055;BME280;74141;51.504;7.122;2023-11-21T00:21:02;100594.34;;;6.43;100.00
84055;BME280;74141;51.504;7.122;2023-11-21T00:23:28;100594.28;;;6.46;100.00
84055;BME280;74141;51.504;7.122;2023-11-21T00:25:54;100600.28;;;6.51;100.00
84055;BME280;74141;51.504;7.122;2023-11-21T00:28:19;100599.28;;;6.55;100.00
84055;BME280;74141;51.504;7.122;2023-11-21T00:30:44;100593.97;;;6.58;100.00
84055;BME280;74141;51.504;7.122;2023-11-21T00:33:10;100604.41;;;6.59;100.00
84055;BME280;74141;51.504;7.122;2023-11-21T00:35:35;100609.59;;;6.61;100.00
84055;BME280;74141;51.504;7.122;2023-11-21T00:38:00;100608.69;;;6.62;100.00
84055;BME280;74141;51.504;7.122;2023-11-21T00:40:26;100605.16;;;6.64;100.00
84055;BME280;74141;51.504;7.122;2023-11-21T00:42:51;100607.72;;;6.66;100.00
84055;BME280;74141;51.504;7.122;2023-11-21T00:45:16;100611.97;;;6.71;100.00
84055;BME280;74141;51.504;7.122;2023-11-21T00:47:42;100600.63;;;6.71;100.00
84055;BME280;74141;51.504;7.122;2023-11-21T00:50:08;100607.56;;;6.72;100.00
84055;BME280;74141;51.504;7.122;2023-11-21T00:52:33;100602.31;;;6.72;100.00
84055;BME280;74141;51.504;7.122;2023-11-21T00:54:59;100602.28;;;6.73;100.00
84055;BME280;74141;51.504;7.122;2023-11-21T00:57:26;100598.75;;;6.76;100.00
84055;BME280;74141;51.504;7.122;2023-11-21T00:59:51;100604.81;;;6.76;100.00
84055;BME280;74141;51.504;7.122;2023-11-21T01:02:16;100607.41;;;6.78;100.00
84055;BME280;74141;51.504;7.122;2023-11-21T01:04:42;100599.50;;;6.79;100.00
84055;BME280;74141;51.504;7.122;2023-11-21T01:07:07;100596.00;;;6.80;100.00
84055;BME280;74141;51.504;7.122;2023-11-21T01:09:32;100606.28;;;6.88;100.00
84055;BME280;74141;51.504;7.122;2023-11-21T01:11:58;100599.19;;;6.91;100.00
84055;BME280;74141;51.504;7.122;2023-11-21T01:14:25;100614.06;;;6.91;100.00
84055;BME280;74141;51.504;7.122;2023-11-21T01:16:52;100617.53;;;6.91;100.00
84055;BME280;74141;51.504;7.122;2023-11-21T01:19:17;100621.00;;;6.92;100.00
84055;BME280;74141;51.504;7.122;2023-11-21T01:21:43;100606.25;;;6.89;100.00
84055;BME280;74141;51.504;7.122;2023-11-21T01:24:08;100607.81;;;6.96;100.00
84055;BME280;74141;51.504;7.122;2023-11-21T01:26:34;100618.91;;;7.04;100.00
84055;BME280;74141;51.504;7.122;2023-11-21T01:28:59;100626.69;;;7.07;100.00
84055;BME280;74141;51.504;7.122;2023-11-21T01:31:24;100628.59;;;7.02;100.00
84055;BME280;74141;51.504;7.122;2023-11-21T01:33:54;100633.72;;;7.07;100.00
84055;BME280;74141;51.504;7.122;2023-11-21T01:36:20;100626.69;;;7.07;100.00
84055;BME280;74141;51.504;7.122;2023-11-21T01:38:46;100628.44;;;7.08;100.00
84055;BME280;74141;51.504;7.122;2023-11-21T01:41:13;100624.94;;;7.08;100.00
84055;BME280;74141;51.504;7.122;2023-11-21T01:43:38;100635.47;;;7.06;100.00
84055;BME280;74141;51.504;7.122;2023-11-21T01:46:04;100634.63;;;7.04;100.00
84055;BME280;74141;51.504;7.122;2023-11-21T01:48:31;100629.44;;;7.03;100.00
84055;BME280;74141;51.504;7.122;2023-11-21T01:50:58;100635.53;;;7.03;100.00
84055;BME280;74141;51.504;7.122;2023-11-21T01:53:25;100638.13;;;7.05;100.00
84055;BME280;74141;51.504;7.122;2023-11-21T01:55:51;100625.88;;;7.05;100.00
84055;BME280;74141;51.504;7.122;2023-11-21T01:58:17;100628.59;;;7.02;100.00
84055;BME280;74141;51.504;7.122;2023-11-21T02:00:43;100637.28;;;7.03;100.00
84055;BME280;74141;51.504;7.122;2023-11-21T02:03:11;100638.19;;;7.02;100.00
84055;BME280;74141;51.504;7.122;2023-11-21T02:05:37;100643.47;;;7.00;100.00
84055;BME280;74141;51.504;7.122;2023-11-21T02:08:11;100642.53;;;7.03;100.00
84055;BME280;74141;51.504;7.122;2023-11-21T02:10:37;100643.31;;;7.06;100.00
84055;BME280;74141;51.504;7.122;2023-11-21T02:13:11;100626.94;;;6.98;100.00
84055;BME280;74141;51.504;7.122;2023-11-21T02:15:37;100644.25;;;7.04;100.00
84055;BME280;74141;51.504;7.122;2023-11-21T02:18:12;100652.97;;;7.04;100.00
84055;BME280;74141;51.504;7.122;2023-11-21T02:20:38;100654.66;;;7.07;100.00
84055;BME280;74141;51.504;7.122;2023-11-21T02:23:12;100662.53;;;7.07;100.00
84055;BME280;74141;51.504;7.122;2023-11-21T02:25:38;100654.81;;;7.01;100.00
84055;BME280;74141;51.504;7.122;2023-11-21T02:28:12;100665.13;;;7.07;100.00
84055;BME280;74141;51.504;7.122;2023-11-21T02:30:40;100664.31;;;7.05;100.00
84055;BME280;74141;51.504;7.122;2023-11-21T02:33:12;100673.06;;;7.04;100.00
84055;BME280;74141;51.504;7.122;2023-11-21T02:35:37;100660.06;;;7.01;100.00
84055;BME280;74141;51.504;7.122;2023-11-21T02:38:12;100668.63;;;7.06;100.00
84055;BME280;74141;51.504;7.122;2023-11-21T02:40:37;100671.25;;;7.06;100.00
84055;BME280;74141;51.504;7.122;2023-11-21T02:43:12;100666.97;;;7.03;100.00
84055;BME280;74141;51.504;7.122;2023-11-21T02:45:37;100678.31;;;7.04;100.00
84055;BME280;74141;51.504;7.122;2023-11-21T02:48:12;100675.72;;;7.02;100.00
84055;BME280;74141;51.504;7.122;2023-11-21T02:50:37;100676.50;;;7.06;100.00
84055;BME280;74141;51.504;7.122;2023-11-21T02:53:11;100679.06;;;7.07;100.00
84055;BME280;74141;51.504;7.122;2023-11-21T02:55:37;100680.66;;;7.14;100.00
84055;BME280;74141;51.504;7.122;2023-11-21T02:58:11;100681.50;;;7.15;100.00
84055;BME280;74141;51.504;7.122;2023-11-21T03:00:37;100670.38;;;7.07;100.00
84055;BME280;74141;51.504;7.122;2023-11-21T03:03:02;100685.81;;;7.17;100.00
84055;BME280;74141;51.504;7.122;2023-11-21T03:05:29;100687.53;;;7.18;100.00
84055;BME280;74141;51.504;7.122;2023-11-21T03:07:54;100685.88;;;7.16;100.00
84055;BME280;74141;51.504;7.122;2023-11-21T03:10:20;100688.41;;;7.19;100.00
84055;BME280;74141;51.504;7.122;2023-11-21T03:12:45;100686.66;;;7.18;100.00
84055;BME280;74141;51.504;7.122;2023-11-21T03:15:11;100674.66;;;7.09;100.00
84055;BME280;74141;51.504;7.122;2023-11-21T03:17:36;100695.44;;;7.17;100.00
84055;BME280;74141;51.504;7.122;2023-11-21T03:20:02;100690.19;;;7.17;100.00
84055;BME280;74141;51.504;7.122;2023-11-21T03:22:28;100685.88;;;7.16;100.00
84055;BME280;74141;51.504;7.122;2023-11-21T03:24:54;100693.72;;;7.16;100.00
84055;BME280;74141;51.504;7.122;2023-11-21T03:27:19;100691.22;;;7.11;100.00
84055;BME280;74141;51.504;7.122;2023-11-21T03:29:46;100686.13;;;7.05;100.00
84055;BME280;74141;51.504;7.122;2023-11-21T03:32:12;100704.44;;;7.07;100.00
84055;BME280;74141;51.504;7.122;2023-11-21T03:34:53;100706.06;;;7.11;100.00
84055;BME280;74141;51.504;7.122;2023-11-21T03:37:18;100707.06;;;7.07;100.00
84055;BME280;74141;51.504;7.122;2023-11-21T03:39:46;100712.19;;;7.11;100.00
84055;BME280;74141;51.504;7.122;2023-11-21T03:42:11;100719.91;;;7.16;100.00
84055;BME280;74141;51.504;7.122;2023-11-21T03:44:36;100706.00;;;7.14;100.00
84055;BME280;74141;51.504;7.122;2023-11-21T03:47:02;100721.63;;;7.17;100.00
84055;BME280;74141;51.504;7.122;2023-11-21T03:49:27;100735.69;;;7.14;100.00
84055;BME280;74141;51.504;7.122;2023-11-21T03:51:54;100728.78;;;7.10;100.00
84055;BME280;74141;51.504;7.122;2023-11-21T03:54:20;100737.44;;;7.14;100.00
84055;BME280;74141;51.504;7.122;2023-11-21T03:56:45;100738.28;;;7.14;100.00
84055;BME280;74141;51.504;7.122;2023-11-21T03:59:10;100733.91;;;7.15;100.00
84055;BME280;74141;51.504;7.122;2023-11-21T04:01:36;100737.38;;;7.15;100.00
84055;BME280;74141;51.504;7.122;2023-11-21T04:04:02;100734.13;;;7.06;100.00
84055;BME280;74141;51.504;7.122;2023-11-21T04:06:27;100746.28;;;7.10;100.00
84055;BME280;74141;51.504;7.122;2023-11-21T04:08:52;100744.53;;;7.09;100.00
84055;BME280;74141;51.504;7.122;2023-11-21T04:11:18;100742.78;;;7.09;100.00
84055;BME280;74141;51.504;7.122;2023-11-21T04:13:43;100741.09;;;7.07;100.00
84055;BME280;74141;51.504;7.122;2023-11-21T04:16:09;100737.75;;;7.00;100.00
84055;BME280;74141;51.504;7.122;2023-11-21T04:18:37;100742.19;;;6.97;100.00
84055;BME280;74141;51.504;7.122;2023-11-21T04:21:04;100737.19;;;6.89;100.00
84055;BME280;74141;51.504;7.122;2023-11-21T04:23:29;100728.78;;;6.75;100.00
84055;BME280;74141;51.504;7.122;2023-11-21T04:25:56;100741.91;;;6.74;100.00
84055;BME280;74141;51.504;7.122;2023-11-21T04:28:23;100741.00;;;6.75;100.00
84055;BME280;74141;51.504;7.122;2023-11-21T04:30:48;100761.13;;;6.73;100.00
84055;BME280;74141;51.504;7.122;2023-11-21T04:33:13;100754.22;;;6.69;100.00
84055;BME280;74141;51.504;7.122;2023-11-21T04:35:38;100754.22;;;6.69;100.00
84055;BME280;74141;51.504;7.122;2023-11-21T04:38:04;100748.19;;;6.67;100.00
84055;BME280;74141;51.504;7.122;2023-11-21T04:40:29;100751.63;;;6.69;100.00
84055;BME280;74141;51.504;7.122;2023-11-21T04:42:55;100755.09;;;6.69;100.00
84055;BME280;74141;51.504;7.122;2023-11-21T04:45:22;100754.16;;;6.72;100.00
84055;BME280;74141;51.504;7.122;2023-11-21T04:47:47;100756.72;;;6.75;100.00
84055;BME280;74141;51.504;7.122;2023-11-21T04:50:12;100757.47;;;6.80;100.00
84055;BME280;74141;51.504;7.122;2023-11-21T04:52:37;100765.03;;;6.92;100.00
84055;BME280;74141;51.504;7.122;2023-11-21T04:55:03;100770.13;;;6.98;100.00
84055;BME280;74141;51.504;7.122;2023-11-21T04:57:28;100769.91;;;7.07;100.00
84055;BME280;74141;51.504;7.122;2023-11-21T04:59:54;100775.97;;;7.09;100.00
84055;BME280;74141;51.504;7.122;2023-11-21T05:02:19;100772.53;;;7.07;100.00
84055;BME280;74141;51.504;7.122;2023-11-21T05:04:46;100773.34;;;7.09;100.00
84055;BME280;74141;51.504;7.122;2023-11-21T05:07:11;100772.47;;;7.10;100.00
84055;BME280;74141;51.504;7.122;2023-11-21T05:09:41;100782.03;;;7.11;100.00
84055;BME280;74141;51.504;7.122;2023-11-21T05:12:06;100777.69;;;7.10;100.00
84055;BME280;74141;51.504;7.122;2023-11-21T05:14:32;100772.53;;;7.07;100.00
84055;BME280;74141;51.504;7.122;2023-11-21T05:16:57;100781.28;;;7.06;100.00
84055;BME280;74141;51.504;7.122;2023-11-21T05:19:24;100778.72;;;7.03;100.00
84055;BME280;74141;51.504;7.122;2023-11-21T05:21:49;100771.13;;;6.94;100.00
84055;BME280;74141;51.504;7.122;2023-11-21T05:24:14;100785.09;;;6.93;100.00
84055;BME280;74141;51.504;7.122;2023-11-21T05:26:40;100790.28;;;6.94;100.00
84055;BME280;74141;51.504;7.122;2023-11-21T05:29:05;100796.38;;;6.96;100.00
84055;BME280;74141;51.504;7.122;2023-11-21T05:31:31;100804.19;;;6.98;100.00
84055;BME280;74141;51.504;7.122;2023-11-21T05:33:57;100805.97;;;6.96;100.00
84055;BME280;74141;51.504;7.122;2023-11-21T05:36:22;100806.88;;;6.95;100.00
84055;BME280;74141;51.504;7.122;2023-11-21T05:38:47;100818.25;;;6.94;100.00
84055;BME280;74141;51.504;7.122;2023-11-21T05:41:12;100816.63;;;6.88;100.00
84055;BME280;74141;51.504;7.122;2023-11-21T05:43:39;100822.91;;;6.81;100.00
84055;BME280;74141;51.504;7.122;2023-11-21T05:46:04;100828.22;;;6.77;100.00
84055;BME280;74141;51.504;7.122;2023-11-21T05:48:30;100827.38;;;6.76;100.00
84055;BME280;74141;51.504;7.122;2023-11-21T05:50:56;100825.63;;;6.77;100.00
84055;BME280;74141;51.504;7.122;2023-11-21T05:53:21;100831.78;;;6.74;100.00
84055;BME280;74141;51.504;7.122;2023-11-21T05:55:47;100837.97;;;6.70;100.00
84055;BME280;74141;51.504;7.122;2023-11-21T05:58:13;100839.88;;;6.64;100.00
84055;BME280;74141;51.504;7.122;2023-11-21T06:00:38;100830.53;;;6.52;100.00
84055;BME280;74141;51.504;7.122;2023-11-21T06:03:04;100833.06;;;6.57;100.00
84055;BME280;74141;51.504;7.122;2023-11-21T06:05:32;100852.94;;;6.65;100.00
84055;BME280;74141;51.504;7.122;2023-11-21T06:07:58;100841.66;;;6.62;100.00
84055;BME280;74141;51.504;7.122;2023-11-21T06:10:24;100857.38;;;6.62;100.00
84055;BME280;74141;51.504;7.122;2023-11-21T06:12:50;100857.38;;;6.62;100.00
84055;BME280;74141;51.504;7.122;2023-11-21T06:15:16;100854.66;;;6.66;100.00
84055;BME280;74141;51.504;7.122;2023-11-21T06:17:44;100867.59;;;6.72;100.00
84055;BME280;74141;51.504;7.122;2023-11-21T06:20:11;100867.50;;;6.77;100.00
84055;BME280;74141;51.504;7.122;2023-11-21T06:22:43;100873.50;;;6.83;100.00
84055;BME280;74141;51.504;7.122;2023-11-21T06:25:09;100877.72;;;6.89;100.00
84055;BME280;74141;51.504;7.122;2023-11-21T06:27:37;100885.44;;;6.95;100.00
84055;BME280;74141;51.504;7.122;2023-11-21T06:30:04;100882.75;;;6.98;100.00
84055;BME280;74141;51.504;7.122;2023-11-21T06:32:29;100887.88;;;7.04;100.00
84055;BME280;74141;51.504;7.122;2023-11-21T06:34:55;100889.50;;;7.08;100.00
84055;BME280;74141;51.504;7.122;2023-11-21T06:37:21;100896.38;;;7.12;100.00
84055;BME280;74141;51.504;7.122;2023-11-21T06:39:48;100892.00;;;7.14;100.00
84055;BME280;74141;51.504;7.122;2023-11-21T06:42:14;100900.66;;;7.17;100.00
84055;BME280;74141;51.504;7.122;2023-11-21T06:44:40;100903.22;;;7.20;100.00
84055;BME280;74141;51.504;7.122;2023-11-21T06:47:06;100891.09;;;7.15;100.00
84055;BME280;74141;51.504;7.122;2023-11-21T06:49:32;100907.41;;;7.27;100.00
84055;BME280;74141;51.504;7.122;2023-11-21T06:51:57;100915.16;;;7.32;100.00
84055;BME280;74141;51.504;7.122;2023-11-21T06:54:23;100906.31;;;7.36;100.00
84055;BME280;74141;51.504;7.122;2023-11-21T06:56:49;100910.69;;;7.35;100.00
84055;BME280;74141;51.504;7.122;2023-11-21T06:59:15;100925.38;;;7.44;100.00
84055;BME280;74141;51.504;7.122;2023-11-21T07:01:40;100923.53;;;7.46;100.00
84055;BME280;74141;51.504;7.122;2023-11-21T07:04:07;100928.75;;;7.47;100.00
84055;BME280;74141;51.504;7.122;2023-11-21T07:06:34;100917.44;;;7.47;100.00
84055;BME280;74141;51.504;7.122;2023-11-21T07:08:59;100937.34;;;7.54;100.00
84055;BME280;74141;51.504;7.122;2023-11-21T07:11:26;100938.28;;;7.51;100.00
84055;BME280;74141;51.504;7.122;2023-11-21T07:13:51;100941.75;;;7.52;100.00
84055;BME280;74141;51.504;7.122;2023-11-21T07:16:17;100937.34;;;7.54;100.00
84055;BME280;74141;51.504;7.122;2023-11-21T07:18:43;100933.84;;;7.53;100.00
84055;BME280;74141;51.504;7.122;2023-11-21T07:21:09;100940.88;;;7.53;100.00
84055;BME280;74141;51.504;7.122;2023-11-21T07:23:37;100941.66;;;7.56;100.00
84055;BME280;74141;51.504;7.122;2023-11-21T07:26:02;100942.41;;;7.61;100.00
84055;BME280;74141;51.504;7.122;2023-11-21T07:28:28;100940.69;;;7.59;100.00
84055;BME280;74141;51.504;7.122;2023-11-21T07:30:54;100952.88;;;7.63;100.00
84055;BME280;74141;51.504;7.122;2023-11-21T07:33:19;100946.88;;;7.56;100.00
84055;BME280;74141;51.504;7.122;2023-11-21T07:35:44;100956.28;;;7.65;100.00
84055;BME280;74141;51.504;7.122;2023-11-21T07:38:09;100956.16;;;7.71;100.00
84055;BME280;74141;51.504;7.122;2023-11-21T07:40:35;100965.56;;;7.79;100.00
84055;BME280;74141;51.504;7.122;2023-11-21T07:43:00;100959.38;;;7.82;100.00
84055;BME280;74141;51.504;7.122;2023-11-21T07:45:26;100967.09;;;7.88;100.00
84055;BME280;74141;51.504;7.122;2023-11-21T07:47:53;100959.09;;;7.94;100.00
84055;BME280;74141;51.504;7.122;2023-11-21T07:50:19;100960.72;;;7.98;100.00
84055;BME280;74141;51.504;7.122;2023-11-21T07:52:45;100961.56;;;8.00;100.00
84055;BME280;74141;51.504;7.122;2023-11-21T07:55:11;100954.38;;;8.06;100.00
84055;BME280;74141;51.504;7.122;2023-11-21T07:57:36;100962.06;;;8.14;100.00
84055;BME280;74141;51.504;7.122;2023-11-21T08:00:02;100968.84;;;8.21;100.00
84055;BME280;74141;51.504;7.122;2023-11-21T08:02:28;100975.72;;;8.28;100.00
84055;BME280;74141;51.504;7.122;2023-11-21T08:04:54;100986.00;;;8.37;100.00
84055;BME280;74141;51.504;7.122;2023-11-21T08:07:20;100989.25;;;8.45;100.00
84055;BME280;74141;51.504;7.122;2023-11-21T08:09:45;100998.59;;;8.55;100.00
84055;BME280;74141;51.504;7.122;2023-11-21T08:12:11;101008.16;;;8.59;100.00
84055;BME280;74141;51.504;7.122;2023-11-21T08:14:37;101014.16;;;8.63;100.00
84055;BME280;74141;51.504;7.122;2023-11-21T08:17:04;101025.47;;;8.66;100.00
84055;BME280;74141;51.504;7.122;2023-11-21T08:19:29;101027.25;;;8.64;99.83
84055;BME280;74141;51.504;7.122;2023-11-21T08:21:54;101034.16;;;8.68;99.34
84055;BME280;74141;51.504;7.122;2023-11-21T08:24:21;101031.72;;;8.62;99.65
84055;BME280;74141;51.504;7.122;2023-11-21T08:26:47;101045.69;;;8.63;100.00
84055;BME280;74141;51.504;7.122;2023-11-21T08:29:12;101047.53;;;8.59;100.00
84055;BME280;74141;51.504;7.122;2023-11-21T08:31:38;101052.81;;;8.59;99.42
84055;BME280;74141;51.504;7.122;2023-11-21T08:34:04;101059.72;;;8.62;100.00
84055;BME280;74141;51.504;7.122;2023-11-21T08:36:29;101062.31;;;8.63;99.41
84055;BME280;74141;51.504;7.122;2023-11-21T08:38:56;101070.19;;;8.63;99.27
84055;BME280;74141;51.504;7.122;2023-11-21T08:41:22;101065.78;;;8.65;99.87
84055;BME280;74141;51.504;7.122;2023-11-21T08:43:49;101073.53;;;8.70;100.00
84055;BME280;74141;51.504;7.122;2023-11-21T08:46:14;101068.19;;;8.73;100.00
84055;BME280;74141;51.504;7.122;2023-11-21T08:48:41;101075.94;;;8.77;99.84
84055;BME280;74141;51.504;7.122;2023-11-21T08:51:06;101062.72;;;8.80;100.00
84055;BME280;74141;51.504;7.122;2023-11-21T08:53:32;101067.84;;;8.85;100.00
84055;BME280;74141;51.504;7.122;2023-11-21T08:55:58;101064.34;;;8.86;100.00
84055;BME280;74141;51.504;7.122;2023-11-21T08:58:23;101070.22;;;8.94;100.00
84055;BME280;74141;51.504;7.122;2023-11-21T09:00:50;101072.00;;;8.93;98.65
84055;BME280;74141;51.504;7.122;2023-11-21T09:03:15;101074.53;;;8.98;99.53
84055;BME280;74141;51.504;7.122;2023-11-21T09:05:40;101075.22;;;9.03;98.89
84055;BME280;74141;51.504;7.122;2023-11-21T09:08:06;101083.03;;;9.06;99.86
84055;BME280;74141;51.504;7.122;2023-11-21T09:10:33;101091.50;;;9.17;99.96
84055;BME280;74141;51.504;7.122;2023-11-21T09:13:00;101086.91;;;9.23;99.89
84055;BME280;74141;51.504;7.122;2023-11-21T09:15:26;101088.75;;;9.21;99.22
84055;BME280;74141;51.504;7.122;2023-11-21T09:17:51;101103.44;;;9.28;98.83
84055;BME280;74141;51.504;7.122;2023-11-21T09:20:16;101096.38;;;9.30;98.70
84055;BME280;74141;51.504;7.122;2023-11-21T09:22:42;101092.00;;;9.29;99.57
84055;BME280;74141;51.504;7.122;2023-11-21T09:25:10;101099.69;;;9.37;97.98
84055;BME280;74141;51.504;7.122;2023-11-21T09:27:35;101099.59;;;9.40;98.52
84055;BME280;74141;51.504;7.122;2023-11-21T09:30:03;101112.66;;;9.43;98.39
84055;BME280;74141;51.504;7.122;2023-11-21T09:32:30;101110.91;;;9.43;97.96
84055;BME280;74141;51.504;7.122;2023-11-21T09:34:56;101116.91;;;9.47;98.58
84055;BME280;74141;51.504;7.122;2023-11-21T09:37:23;101122.00;;;9.53;97.92
84055;BME280;74141;51.504;7.122;2023-11-21T09:39:48;101133.41;;;9.53;97.32
84055;BME280;74141;51.504;7.122;2023-11-21T09:42:17;101133.47;;;9.50;97.33
84055;BME280;74141;51.504;7.122;2023-11-21T09:47:35;101135.88;;;9.58;96.58
84055;BME280;74141;51.504;7.122;2023-11-21T09:50:02;101127.22;;;9.54;97.27
84055;BME280;74141;51.504;7.122;2023-11-21T09:52:28;101127.09;;;9.59;97.88
84055;BME280;74141;51.504;7.122;2023-11-21T09:54:55;101126.72;;;9.71;97.21
84055;BME280;74141;51.504;7.122;2023-11-21T09:57:24;101130.09;;;9.76;96.76
84055;BME280;74141;51.504;7.122;2023-11-21T09:59:54;101136.91;;;9.83;96.34
84055;BME280;74141;51.504;7.122;2023-11-21T10:02:28;101138.69;;;9.81;96.56
84055;BME280;74141;51.504;7.122;2023-11-21T10:04:55;101138.66;;;9.82;96.21
84055;BME280;74141;51.504;7.122;2023-11-21T10:07:22;101140.13;;;9.92;95.82
84055;BME280;74141;51.504;7.122;2023-11-21T10:09:47;101146.84;;;10.02;95.16
84055;BME280;74141;51.504;7.122;2023-11-21T10:12:16;101139.03;;;9.99;95.82
84055;BME280;74141;51.504;7.122;2023-11-21T10:14:42;101138.69;;;10.11;95.43
84055;BME280;74141;51.504;7.122;2023-11-21T10:17:10;101141.03;;;10.20;95.14
84055;BME280;74141;51.504;7.122;2023-11-21T10:19:38;101139.00;;;10.28;95.90
84055;BME280;74141;51.504;7.122;2023-11-21T10:22:05;101140.84;;;10.27;94.80
84055;BME280;74141;51.504;7.122;2023-11-21T10:24:32;101138.88;;;10.33;95.65
84055;BME280;74141;51.504;7.122;2023-11-21T10:26:57;101141.75;;;10.25;94.34
84055;BME280;74141;51.504;7.122;2023-11-21T10:29:22;101142.84;;;10.18;94.92
84055;BME280;74141;51.504;7.122;2023-11-21T10:31:51;101148.03;;;10.21;93.75
84055;BME280;74141;51.504;7.122;2023-11-21T10:34:20;101147.09;;;10.22;93.01
84055;BME280;74141;51.504;7.122;2023-11-21T10:36:46;101151.94;;;10.36;92.48
84055;BME280;74141;51.504;7.122;2023-11-21T10:39:21;101151.13;;;10.62;92.95
84055;BME280;74141;51.504;7.122;2023-11-21T10:41:49;101153.94;;;10.82;91.87
84055;BME280;74141;51.504;7.122;2023-11-21T10:44:16;101155.44;;;10.89;91.11
84055;BME280;74141;51.504;7.122;2023-11-21T10:46:52;101154.56;;;10.90;91.43
84055;BME280;74141;51.504;7.122;2023-11-21T10:49:21;101159.56;;;10.97;89.99
84055;BME280;74141;51.504;7.122;2023-11-21T10:51:46;101166.41;;;11.03;89.48
84055;BME280;74141;51.504;7.122;2023-11-21T10:54:20;101161.34;;;10.97;89.92
84055;BME280;74141;51.504;7.122;2023-11-21T10:56:48;101161.13;;;11.03;88.77
84055;BME280;74141;51.504;7.122;2023-11-21T10:59:15;101178.06;;;10.96;89.43
84055;BME280;74141;51.504;7.122;2023-11-21T11:01:44;101176.34;;;10.95;88.13
84055;BME280;74141;51.504;7.122;2023-11-21T11:04:11;101172.25;;;10.86;89.66
84055;BME280;74141;51.504;7.122;2023-11-21T11:06:43;101176.44;;;10.92;89.22
84055;BME280;74141;51.504;7.122;2023-11-21T11:09:11;101176.69;;;11.10;89.33
84055;BME280;74141;51.504;7.122;2023-11-21T11:11:41;101177.50;;;11.12;88.46
84055;BME280;74141;51.504;7.122;2023-11-21T11:14:10;101186.97;;;11.18;88.15
84055;BME280;74141;51.504;7.122;2023-11-21T11:16:38;101176.78;;;11.07;88.64
84055;BME280;74141;51.504;7.122;2023-11-21T11:19:07;101172.56;;;11.28;87.39
84055;BME280;74141;51.504;7.122;2023-11-21T11:21:59;101189.19;;;11.30;86.75
84055;BME280;74141;51.504;7.122;2023-11-21T11:32:43;101185.16;;;10.94;88.37
84055;BME280;74141;51.504;7.122;2023-11-21T11:35:29;101186.63;;;10.76;87.91
84055;BME280;74141;51.504;7.122;2023-11-21T11:37:58;101191.41;;;10.91;88.31
84055;BME280;74141;51.504;7.122;2023-11-21T11:40:38;101180.19;;;10.85;88.32
84055;BME280;74141;51.504;7.122;2023-11-21T11:43:06;101184.69;;;10.83;88.70
84055;BME280;74141;51.504;7.122;2023-11-21T11:45:33;101184.88;;;10.77;88.81
84055;BME280;74141;51.504;7.122;2023-11-21T11:48:00;101187.81;;;10.68;89.83
84055;BME280;74141;51.504;7.122;2023-11-21T11:50:26;101186.84;;;10.70;89.04
84055;BME280;74141;51.504;7.122;2023-11-21T11:52:55;101189.13;;;10.55;90.36
84055;BME280;74141;51.504;7.122;2023-11-21T11:55:36;101184.84;;;10.51;89.91
84055;BME280;74141;51.504;7.122;2023-11-21T11:58:05;101197.13;;;10.52;90.01
84055;BME280;74141;51.504;7.122;2023-11-21T12:00:35;101198.28;;;10.42;89.94
84055;BME280;74141;51.504;7.122;2023-11-21T12:03:06;101194.69;;;10.16;90.10
84055;BME280;74141;51.504;7.122;2023-11-21T12:05:33;101214.03;;;10.15;90.72
84055;BME280;74141;51.504;7.122;2023-11-21T12:08:05;101216.03;;;10.07;91.05
84055;BME280;74141;51.504;7.122;2023-11-21T12:10:32;101219.09;;;9.92;91.49
84055;BME280;74141;51.504;7.122;2023-11-21T12:13:00;101221.81;;;9.89;91.56
84055;BME280;74141;51.504;7.122;2023-11-21T12:15:26;101228.88;;;9.87;92.55
84055;BME280;74141;51.504;7.122;2023-11-21T12:17:54;101231.50;;;9.87;91.74
84055;BME280;74141;51.504;7.122;2023-11-21T12:20:23;101229.88;;;9.83;92.58
84055;BME280;74141;51.504;7.122;2023-11-21T12:22:50;101228.03;;;9.85;92.56
84055;BME280;74141;51.504;7.122;2023-11-21T12:25:17;101226.13;;;9.92;92.49
84055;BME280;74141;51.504;7.122;2023-11-21T12:27:45;101221.94;;;9.85;91.79
84055;BME280;74141;51.504;7.122;2023-11-21T12:30:11;101231.63;;;9.83;92.21
84055;BME280;74141;51.504;7.122;2023-11-21T12:32:39;101235.81;;;9.90;91.94
84055;BME280;74141;51.504;7.122;2023-11-21T12:35:06;101229.75;;;9.88;91.90
84055;BME280;74141;51.504;7.122;2023-11-21T12:37:32;101239.22;;;9.93;93.70
84055;BME280;74141;51.504;7.122;2023-11-21T12:39:58;101236.59;;;9.93;94.30
84055;BME280;74141;51.504;7.122;2023-11-21T12:42:23;101243.66;;;9.91;94.55
84055;BME280;74141;51.504;7.122;2023-11-21T12:45:08;101245.50;;;9.89;95.41
84055;BME280;74141;51.504;7.122;2023-11-21T12:47:37;101247.38;;;9.84;95.76
84055;BME280;74141;51.504;7.122;2023-11-21T12:50:02;101254.50;;;9.81;96.03
84055;BME280;74141;51.504;7.122;2023-11-21T12:52:28;101262.50;;;9.76;95.21
84055;BME280;74141;51.504;7.122;2023-11-21T12:54:53;101251.25;;;9.71;95.59
84055;BME280;74141;51.504;7.122;2023-11-21T12:57:19;101263.47;;;9.74;96.24
84055;BME280;74141;51.504;7.122;2023-11-21T12:59:45;101269.50;;;9.77;94.53
84055;BME280;74141;51.504;7.122;2023-11-21T13:02:12;101266.97;;;9.74;95.15